Time;durP1;ratioP1;P1;durP2;ratioP2;P2;SDS_P1;SDS_P2;PMS_P1;PMS_P2;Temp;Humidity;BMP_temperature;BMP_pressure;BME280_temperature;BME280_humidity;BME280_pressure;Samples;Min_cycle;Max_cycle;Signal;HPM_P1;HPM_P2
2021/10/24 00:00:30;;;;;;;4.47;2.50;;;;;;;6.30;55.21;102378.84;7976255;28;20510;-68
2021/10/24 00:04:21;;;;;;;6.43;2.78;;;;;;;6.26;54.85;102374.59;7974041;28;20256;-68
2021/10/24 00:08:11;;;;;;;5.32;2.92;;;;;;;6.20;55.15;102367.78;7976286;28;20072;-64
2021/10/24 00:12:03;;;;;;;4.90;3.03;;;;;;;6.21;55.31;102376.47;7974160;28;20472;-66
2021/10/24 00:15:53;;;;;;;3.97;2.83;;;;;;;6.19;55.04;102373.88;7977879;28;20026;-68
2021/10/24 00:19:45;;;;;;;4.68;3.03;;;;;;;6.17;55.12;102370.47;7976308;28;20140;-65
2021/10/24 00:23:35;;;;;;;4.32;2.65;;;;;;;6.15;55.29;102371.38;7974761;28;20546;-68
2021/10/24 00:27:26;;;;;;;5.32;2.58;;;;;;;6.11;55.04;102373.19;7975397;28;20397;-67
2021/10/24 00:31:17;;;;;;;5.82;2.30;;;;;;;6.04;55.37;102363.81;7974108;28;20391;-67
2021/10/24 00:35:08;;;;;;;4.88;2.45;;;;;;;6.03;55.50;102359.47;7973680;28;20044;-67
2021/10/24 00:38:58;;;;;;;4.85;2.58;;;;;;;6.07;55.45;102372.44;7974272;28;20537;-67
2021/10/24 00:42:53;;;;;;;9.30;2.72;;;;;;;6.06;55.48;102372.44;7973423;28;20032;-65
2021/10/24 00:46:44;;;;;;;3.85;2.00;;;;;;;6.02;55.50;102362.97;7974891;28;20033;-67
2021/10/24 00:50:35;;;;;;;3.95;2.30;;;;;;;6.05;55.84;102363.78;7974071;28;20145;-68
2021/10/24 00:54:27;;;;;;;5.10;2.80;;;;;;;6.04;55.42;102363.81;7979813;28;20037;-67
2021/10/24 00:58:19;;;;;;;5.45;2.13;;;;;;;6.03;55.63;102360.34;7973888;28;20042;-68
2021/10/24 01:02:09;;;;;;;4.55;2.45;;;;;;;5.97;55.60;102350.03;7973073;28;20648;-65
2021/10/24 01:06:01;;;;;;;5.38;2.55;;;;;;;6.00;55.63;102351.75;7973278;28;20033;-67
2021/10/24 01:09:52;;;;;;;5.65;2.47;;;;;;;5.98;55.83;102354.38;7974296;28;20445;-66
2021/10/24 01:13:43;;;;;;;4.90;2.67;;;;;;;5.97;55.73;102341.38;7973525;28;20061;-67
2021/10/24 01:17:34;;;;;;;3.53;2.47;;;;;;;5.92;56.08;102338.88;7971860;28;20040;-67
2021/10/24 01:21:24;;;;;;;4.10;2.63;;;;;;;5.97;56.23;102337.00;7972187;28;20041;-67
2021/10/24 01:25:16;;;;;;;3.35;2.22;;;;;;;5.97;56.35;102331.78;7971313;28;20040;-67
2021/10/24 01:29:09;;;;;;;4.70;2.20;;;;;;;5.95;55.99;102328.38;7973628;28;20033;-67
2021/10/24 01:33:01;;;;;;;3.80;2.00;;;;;;;5.93;56.47;102324.91;7971537;28;20557;-65
2021/10/24 01:36:53;;;;;;;5.72;1.98;;;;;;;5.93;56.45;102324.09;7971213;28;20048;-67
2021/10/24 01:40:44;;;;;;;3.45;2.40;;;;;;;5.88;56.46;102313.75;7971023;28;20120;-67
2021/10/24 01:44:35;;;;;;;4.20;2.47;;;;;;;5.91;56.52;102312.81;7971468;28;20095;-66
2021/10/24 01:48:26;;;;;;;5.13;2.72;;;;;;;5.90;56.41;102304.13;7971300;28;20103;-67
2021/10/24 01:52:17;;;;;;;5.85;2.50;;;;;;;5.91;56.61;102305.00;7970480;28;20038;-66
2021/10/24 01:56:09;;;;;;;3.90;2.70;;;;;;;5.89;56.51;102298.97;7954562;28;20030;-67
2021/10/24 02:00:02;;;;;;;8.65;2.92;;;;;;;5.83;56.64;102284.31;7970881;28;20640;-67
2021/10/24 02:04:07;;;;;;;3.83;2.40;;;;;;;5.87;56.54;102287.72;7968998;28;20037;-67
2021/10/24 02:08:06;;;;;;;;;;;;;;;5.77;56.49;102283.59;7971252;28;20701;-67
2021/10/24 02:11:57;;;;;;;5.20;2.28;;;;;;;5.79;56.88;102282.69;7970056;28;19925;-67
2021/10/24 02:15:49;;;;;;;7.43;2.55;;;;;;;5.77;56.68;102284.44;7969747;28;20048;-66
2021/10/24 02:19:40;;;;;;;5.68;2.88;;;;;;;5.76;56.53;102280.16;7970351;28;20109;-67
2021/10/24 02:23:31;;;;;;;9.60;3.50;;;;;;;5.75;56.84;102274.97;7954936;28;20037;-67
2021/10/24 02:27:25;;;;;;;3.92;2.53;;;;;;;5.75;56.50;102273.22;7971485;28;20475;-67
2021/10/24 02:31:16;;;;;;;6.95;2.67;;;;;;;5.74;56.78;102275.84;7970709;28;20045;-68
2021/10/24 02:35:13;;;;;;;8.57;2.83;;;;;;;5.70;56.29;102258.56;7971039;28;20033;-68
2021/10/24 02:39:07;;;;;;;5.10;2.78;;;;;;;5.65;56.97;102258.66;7971268;28;20084;-67
2021/10/24 02:43:03;;;;;;;6.40;2.70;;;;;;;5.61;56.46;102254.44;7968831;28;20025;-67
2021/10/24 02:46:58;;;;;;;4.72;3.10;;;;;;;5.63;56.54;102260.47;7970847;28;20061;-68
2021/10/24 02:50:49;;;;;;;8.18;2.95;;;;;;;5.60;56.74;102247.53;7968868;28;20467;-67
2021/10/24 02:54:42;;;;;;;6.60;2.92;;;;;;;5.58;56.50;102252.75;7972252;28;20045;-66
2021/10/24 02:58:33;;;;;;;4.70;2.92;;;;;;;5.55;56.68;102241.56;7972264;28;20038;-66
2021/10/24 03:02:24;;;;;;;6.43;3.35;;;;;;;5.53;56.41;102238.97;7970602;28;20033;-66
2021/10/24 03:06:15;;;;;;;7.63;2.83;;;;;;;5.49;56.52;102237.31;7970588;28;20038;-67
2021/10/24 03:10:07;;;;;;;5.88;2.85;;;;;;;5.48;56.45;102235.59;7969760;28;20037;-66
2021/10/24 03:13:58;;;;;;;4.00;2.63;;;;;;;5.39;56.79;102222.81;7969500;28;20079;-67
2021/10/24 03:17:49;;;;;;;5.43;3.28;;;;;;;5.45;56.55;102237.44;7975336;28;20187;-68
2021/10/24 03:21:39;;;;;;;5.30;3.17;;;;;;;5.39;56.92;102227.16;7976339;28;20116;-67
2021/10/24 03:25:33;;;;;;;6.32;3.40;;;;;;;5.40;56.48;102232.31;7975710;28;20037;-67
2021/10/24 03:29:24;;;;;;;5.22;3.05;;;;;;;5.37;56.83;102224.59;7968439;28;20193;-67
2021/10/24 03:33:16;;;;;;;4.65;3.30;;;;;;;5.32;57.01;102222.97;7974778;28;20625;-67
2021/10/24 03:37:07;;;;;;;4.40;2.97;;;;;;;5.33;56.62;102219.47;7975403;28;20065;-67
2021/10/24 03:40:59;;;;;;;6.38;3.67;;;;;;;5.31;56.59;102221.28;7975374;28;20671;-67
2021/10/24 03:44:50;;;;;;;6.32;3.75;;;;;;;5.29;56.75;102221.28;7974586;28;20112;-67
2021/10/24 03:48:43;;;;;;;5.30;3.22;;;;;;;5.27;56.85;102224.84;7975382;28;20126;-67
2021/10/24 03:52:34;;;;;;;7.07;3.35;;;;;;;5.24;56.46;102225.75;7975503;28;20038;-67
2021/10/24 03:56:25;;;;;;;7.22;3.25;;;;;;;5.21;56.87;102225.81;7974692;28;20039;-67
2021/10/24 04:00:16;;;;;;;6.60;3.28;;;;;;;5.18;56.59;102225.91;7974442;28;20514;-66
2021/10/24 04:04:06;;;;;;;5.55;3.45;;;;;;;5.15;56.70;102229.41;7974757;28;20044;-66
2021/10/24 04:08:01;;;;;;;8.13;3.05;;;;;;;5.12;56.59;102219.03;7973818;28;20115;-65
2021/10/24 04:11:52;;;;;;;6.78;3.50;;;;;;;5.11;56.59;102212.09;7974296;28;20037;-67
2021/10/24 04:15:42;;;;;;;6.30;3.40;;;;;;;5.09;56.51;102216.50;7975665;28;20049;-67
2021/10/24 04:19:51;;;;;;;5.93;3.65;;;;;;;5.06;56.88;102218.31;7975454;28;20682;-68
2021/10/24 04:23:42;;;;;;;9.40;3.25;;;;;;;4.93;56.88;102194.28;7973209;28;20036;-67
2021/10/24 04:27:33;;;;;;;6.25;3.38;;;;;;;4.98;56.68;102213.25;7972003;28;20045;-66
2021/10/24 04:31:24;;;;;;;10.27;3.53;;;;;;;4.98;56.49;102204.59;7974701;28;20606;-68
2021/10/24 04:35:15;;;;;;;5.22;3.60;;;;;;;4.96;56.84;102203.78;7972210;28;20103;-68
2021/10/24 04:39:06;;;;;;;8.93;3.72;;;;;;;4.94;56.96;102200.38;7973262;28;20042;-67
2021/10/24 04:42:58;;;;;;;5.88;3.60;;;;;;;4.92;56.27;102196.91;7973571;28;20061;-67
2021/10/24 04:46:49;;;;;;;8.77;3.17;;;;;;;4.83;56.67;102171.94;7973609;28;20167;-68
2021/10/24 04:50:39;;;;;;;6.32;3.38;;;;;;;4.90;56.68;102188.25;7972597;28;20067;-68
2021/10/24 04:54:30;;;;;;;8.13;3.33;;;;;;;4.88;56.85;102179.66;7972530;28;20124;-67
2021/10/24 04:58:21;;;;;;;4.18;3.17;;;;;;;4.86;56.35;102178.81;7972817;28;20116;-67
2021/10/24 05:02:11;;;;;;;4.35;3.13;;;;;;;4.83;56.60;102176.28;7972489;28;20096;-66
2021/10/24 05:06:02;;;;;;;5.63;3.42;;;;;;;4.77;56.59;102163.41;7971512;28;20033;-67
2021/10/24 05:09:58;;;;;;;5.97;3.05;;;;;;;4.77;56.62;102168.63;7955806;28;20056;-67
2021/10/24 05:13:48;;;;;;;6.20;2.85;;;;;;;4.73;56.43;102171.25;7973804;28;20443;-67
2021/10/24 05:17:39;;;;;;;5.25;3.63;;;;;;;4.69;56.30;102158.34;7970166;28;20030;-67
2021/10/24 05:21:31;;;;;;;7.25;3.30;;;;;;;4.68;56.33;102159.25;7971260;28;20053;-67
2021/10/24 05:25:22;;;;;;;5.15;3.00;;;;;;;4.64;56.48;102155.00;7970189;28;20042;-66
2021/10/24 05:29:13;;;;;;;8.32;3.60;;;;;;;4.62;56.43;102156.75;7970747;28;20119;-65
2021/10/24 05:33:03;;;;;;;5.25;3.30;;;;;;;4.56;56.37;102146.50;7970741;28;20583;-66
2021/10/24 05:37:02;;;;;;;5.53;2.85;;;;;;;4.46;56.36;102137.16;7971170;28;20116;-67
2021/10/24 05:40:53;;;;;;;5.05;3.13;;;;;;;4.50;56.35;102149.22;7971124;28;21452;-66
2021/10/24 05:44:44;;;;;;;6.93;3.55;;;;;;;4.46;56.45;102145.81;7969437;28;20033;-66
2021/10/24 05:48:35;;;;;;;5.03;2.75;;;;;;;4.43;56.38;102143.28;7969657;28;20087;-66
2021/10/24 05:52:32;;;;;;;5.80;3.13;;;;;;;4.41;56.37;102137.25;7969455;28;20037;-67
2021/10/24 05:56:22;;;;;;;4.95;3.25;;;;;;;4.38;56.51;102126.91;7969658;28;20681;-65
2021/10/24 06:00:14;;;;;;;4.43;3.15;;;;;;;4.36;56.66;102126.06;7969825;28;20155;-67
2021/10/24 06:04:10;;;;;;;6.40;3.65;;;;;;;4.33;56.48;102126.13;7969898;28;20106;-66
2021/10/24 06:08:24;;;;;;;8.93;4.13;;;;;;;4.28;56.69;102126.22;7968388;28;20103;-67
2021/10/24 06:12:28;;;;;;;6.00;3.53;;;;;;;4.26;56.69;102135.81;7968000;28;20633;-67
2021/10/24 06:16:19;;;;;;;5.88;3.22;;;;;;;4.21;56.73;102121.19;7968308;28;20025;-67
2021/10/24 06:20:10;;;;;;;6.38;3.40;;;;;;;4.23;56.79;102122.03;7966721;28;20394;-66
2021/10/24 06:24:01;;;;;;;5.63;3.42;;;;;;;4.23;56.83;102125.47;7963911;28;20045;-67
2021/10/24 06:27:52;;;;;;;8.98;3.80;;;;;;;4.20;57.02;102115.13;7980797;28;20037;-67
2021/10/24 06:31:44;;;;;;;7.00;3.28;;;;;;;4.17;56.92;102109.13;7967790;28;20561;-67
2021/10/24 06:35:53;;;;;;;8.35;3.53;;;;;;;4.12;57.08;102108.34;7968781;28;20033;-67
2021/10/24 06:40:15;;;;;;;5.20;2.90;;;;;;;4.15;57.16;102113.53;7968991;28;20132;-66
2021/10/24 06:44:11;;;;;;;4.93;2.85;;;;;;;4.12;57.10;102104.00;7967805;28;20033;-66
2021/10/24 06:48:28;;;;;;;6.80;3.42;;;;;;;4.16;57.19;102108.25;7952222;28;20111;-66
2021/10/24 06:52:33;;;;;;;4.53;3.25;;;;;;;4.12;57.04;102101.41;7966989;28;20077;-67
2021/10/24 06:56:43;;;;;;;6.20;3.55;;;;;;;4.23;57.16;102119.44;7974502;28;20037;-66
2021/10/24 07:00:52;;;;;;;6.47;3.90;;;;;;;4.24;57.25;102123.72;7973814;28;20470;-67
2021/10/24 07:05:16;;;;;;;6.82;3.58;;;;;;;4.26;57.21;102112.41;7951697;28;20056;-66
2021/10/24 07:09:10;;;;;;;5.72;3.13;;;;;;;4.30;57.43;102115.81;7992915;28;20646;-66
2021/10/24 07:13:01;;;;;;;7.55;4.05;;;;;;;4.31;57.33;102114.91;7973976;28;20044;-66
2021/10/24 07:16:51;;;;;;;7.20;3.75;;;;;;;4.34;57.49;102109.66;7965772;28;20086;-66
2021/10/24 07:20:43;;;;;;;5.75;3.40;;;;;;;4.35;57.39;102119.19;7974204;28;20537;-66
2021/10/24 07:24:33;;;;;;;5.10;3.58;;;;;;;4.39;57.46;102110.41;7973862;28;20133;-66
2021/10/24 07:28:24;;;;;;;8.18;4.32;;;;;;;4.42;57.59;102106.88;7973256;28;20113;-66
2021/10/24 07:32:15;;;;;;;6.55;3.80;;;;;;;4.43;57.50;102100.81;7973579;28;20051;-66
2021/10/24 07:36:17;;;;;;;6.60;3.05;;;;;;;4.48;57.66;102106.78;7973082;28;20087;-67
2021/10/24 07:40:09;;;;;;;6.18;3.67;;;;;;;4.51;57.78;102094.53;7972837;28;20042;-67
2021/10/24 07:44:00;;;;;;;6.97;3.88;;;;;;;4.55;57.60;102096.19;7972718;28;20034;-66
2021/10/24 07:47:51;;;;;;;7.28;3.88;;;;;;;4.57;57.73;102090.94;7973123;28;20120;-66
2021/10/24 07:51:43;;;;;;;4.95;3.25;;;;;;;4.62;57.81;102092.56;7973006;28;20633;-66
2021/10/24 07:55:34;;;;;;;6.40;3.35;;;;;;;4.70;57.78;102101.06;7971881;28;20052;-67
2021/10/24 07:59:28;;;;;;;5.53;3.35;;;;;;;4.72;58.02;102075.84;7966411;28;20029;-67
2021/10/24 08:03:21;;;;;;;7.25;3.50;;;;;;;4.88;57.85;102088.50;7974261;28;20064;-67
2021/10/24 08:07:13;;;;;;;3.20;2.65;;;;;;;5.07;58.18;102088.03;7972860;28;20079;-67
2021/10/24 08:11:04;;;;;;;6.40;3.60;;;;;;;5.30;57.98;102071.88;7968300;28;20030;-67
2021/10/24 08:15:00;;;;;;;4.18;3.15;;;;;;;5.52;57.64;102051.31;7956103;28;20522;-66
2021/10/24 08:18:51;;;;;;;8.35;3.67;;;;;;;5.80;57.30;102073.19;7973133;28;20109;-66
2021/10/24 08:22:55;;;;;;;5.25;3.13;;;;;;;5.88;57.61;102057.31;7971662;28;20061;-66
2021/10/24 08:26:46;;;;;;;5.05;2.50;;;;;;;6.09;57.44;102072.38;7972221;28;20041;-67
2021/10/24 08:30:38;;;;;;;5.18;2.83;;;;;;;6.28;57.66;102068.31;7971892;28;20641;-66
2021/10/24 08:34:41;;;;;;;6.38;3.03;;;;;;;6.51;57.42;102065.03;7971633;28;20034;-67
2021/10/24 08:38:32;;;;;;;5.47;3.30;;;;;;;6.67;57.44;102047.16;7973060;28;20033;-66
2021/10/24 08:42:28;;;;;;;6.05;3.15;;;;;;;6.88;57.31;102044.75;7973081;28;20436;-67
2021/10/24 08:46:20;;;;;;;3.10;2.28;;;;;;;7.05;57.28;102054.63;7973066;28;20116;-67
2021/10/24 08:50:12;;;;;;;5.10;2.50;;;;;;;7.24;57.67;102044.44;7972649;28;20617;-66
2021/10/24 08:54:03;;;;;;;4.53;2.63;;;;;;;7.40;57.26;102036.03;7981493;28;20047;-67
2021/10/24 08:57:54;;;;;;;6.82;2.78;;;;;;;7.54;57.27;102040.78;7972244;28;20039;-67
2021/10/24 09:01:49;;;;;;;3.97;2.17;;;;;;;7.70;57.29;102035.84;7972236;28;20045;-68
2021/10/24 09:05:43;;;;;;;7.22;2.70;;;;;;;7.87;57.39;102041.34;7971669;28;20022;-66
2021/10/24 09:09:35;;;;;;;3.90;2.58;;;;;;;8.09;56.64;102042.25;7972277;28;20040;-66
2021/10/24 09:13:32;;;;;;;6.72;2.75;;;;;;;8.18;56.73;102021.00;7971559;28;20033;-66
2021/10/24 09:17:25;;;;;;;6.25;2.30;;;;;;;8.26;56.60;102029.41;7972405;28;20041;-66
2021/10/24 09:21:16;;;;;;;4.65;2.30;;;;;;;8.23;56.81;102034.78;7972255;28;20036;-67
2021/10/24 09:25:19;;;;;;;4.30;2.45;;;;;;;8.16;56.97;102021.97;7971647;28;20033;-67
2021/10/24 09:29:14;;;;;;;4.72;2.42;;;;;;;8.10;56.66;102023.06;7971477;28;20036;-67
2021/10/24 09:33:10;;;;;;;6.13;2.65;;;;;;;8.05;57.07;102019.72;7968638;28;20061;-67
2021/10/24 09:37:02;;;;;;;4.80;2.38;;;;;;;8.03;57.17;102010.22;7970805;28;20029;-67
2021/10/24 09:41:08;;;;;;;4.30;2.10;;;;;;;7.98;57.05;102006.91;7971371;28;20060;-67
2021/10/24 09:45:06;;;;;;;3.05;2.10;;;;;;;7.94;57.10;102007.03;7969826;28;20030;-66
2021/10/24 09:48:56;;;;;;;;;;;;;;;7.82;57.45;102004.88;7971169;28;20034;-66
2021/10/24 09:52:47;;;;;;;3.30;1.80;;;;;;;7.84;56.96;101995.19;7970272;28;20538;-67
2021/10/24 09:56:37;;;;;;;3.00;1.90;;;;;;;7.84;57.30;101986.50;7971016;28;20124;-67
2021/10/24 10:00:30;;;;;;;5.53;2.35;;;;;;;7.85;57.05;101982.97;7969432;28;20052;-67
2021/10/24 10:04:24;;;;;;;3.03;2.17;;;;;;;7.84;57.06;101981.25;7970621;28;20037;-67
2021/10/24 10:08:14;;;;;;;2.70;1.77;;;;;;;7.79;57.00;101968.38;7970992;28;20044;-66
2021/10/24 10:12:06;;;;;;;3.38;2.15;;;;;;;7.84;57.08;101962.94;7969451;28;20029;-67
2021/10/24 10:16:03;;;;;;;3.05;1.80;;;;;;;7.84;56.89;101969.03;7969686;28;20033;-66
2021/10/24 10:19:53;;;;;;;3.55;2.40;;;;;;;7.85;56.74;101956.81;7970156;28;20545;-66
2021/10/24 10:23:44;;;;;;;4.82;2.40;;;;;;;7.87;57.12;101955.88;7968921;28;20039;-66
2021/10/24 10:27:35;;;;;;;5.60;2.20;;;;;;;7.90;56.98;101949.66;7968547;28;20067;-67
2021/10/24 10:31:26;;;;;;;6.20;2.47;;;;;;;7.92;56.77;101947.81;7969948;28;20087;-67
2021/10/24 10:35:22;;;;;;;5.05;2.50;;;;;;;7.94;57.06;101946.88;7969205;28;20037;-67
2021/10/24 10:39:31;;;;;;;4.22;1.90;;;;;;;7.94;57.00;101923.31;7970004;28;20034;-66
2021/10/24 10:43:22;;;;;;;4.72;2.42;;;;;;;8.00;57.08;101939.69;7969971;28;20078;-67
2021/10/24 10:47:49;;;;;;;6.47;2.40;;;;;;;8.04;56.95;101930.81;7970010;28;20057;-67
2021/10/24 10:51:39;;;;;;;3.88;2.17;;;;;;;8.08;56.79;101927.16;7969589;28;20655;-67
2021/10/24 10:55:55;;;;;;;3.72;1.73;;;;;;;8.11;56.77;101932.31;7969249;28;20029;-67
2021/10/24 10:59:45;;;;;;;5.32;2.10;;;;;;;8.15;57.05;101926.03;7969651;28;20037;-69
2021/10/24 11:03:59;;;;;;;4.35;2.22;;;;;;;8.19;56.67;101922.38;7969186;28;20055;-66
2021/10/24 11:07:51;;;;;;;5.75;2.50;;;;;;;8.26;56.91;101923.84;7968476;28;20037;-66
2021/10/24 11:11:55;;;;;;;3.65;2.10;;;;;;;8.31;57.03;101917.53;7969085;28;20040;-67
2021/10/24 11:15:46;;;;;;;6.93;2.13;;;;;;;8.37;56.71;101925.16;7969177;28;20033;-66
2021/10/24 11:19:37;;;;;;;4.03;1.92;;;;;;;8.43;56.76;101921.41;7969165;28;20045;-67
2021/10/24 11:23:31;;;;;;;3.13;1.60;;;;;;;8.47;56.78;101912.50;7969130;28;20034;-67
2021/10/24 11:27:31;;;;;;;5.03;2.00;;;;;;;8.53;56.54;101919.28;7969658;28;20227;-67
2021/10/24 11:31:23;;;;;;;2.85;1.75;;;;;;;8.58;56.52;101912.91;7968472;28;20516;-67
2021/10/24 11:35:14;;;;;;;2.45;1.80;;;;;;;8.62;56.63;101911.91;7968975;28;20041;-67
2021/10/24 11:39:04;;;;;;;4.43;1.40;;;;;;;8.66;56.49;101902.13;7974337;28;20158;-66
2021/10/24 11:42:55;;;;;;;3.25;1.58;;;;;;;8.70;56.37;101903.72;7974273;28;20025;-66
2021/10/24 11:46:47;;;;;;;2.33;1.50;;;;;;;8.73;56.27;101904.44;7974000;28;20044;-66
2021/10/24 11:50:58;;;;;;;2.38;1.77;;;;;;;8.77;56.25;101895.53;7974851;28;20033;-66
2021/10/24 11:55:06;;;;;;;2.75;1.90;;;;;;;8.76;56.31;101887.72;7973732;28;20120;-67
2021/10/24 12:02:58;;;;;;;2.60;1.73;;;;;;;8.90;56.34;101895.00;7974654;28;20836;-67
2021/10/24 12:07:00;;;;;;;2.67;1.70;;;;;;;8.95;56.25;101898.28;7973760;28;20029;-66
2021/10/24 12:10:51;;;;;;;3.50;2.28;;;;;;;9.00;56.21;101891.06;7973919;28;20038;-67
2021/10/24 12:15:05;;;;;;;2.47;1.70;;;;;;;9.04;56.20;101892.66;7973533;28;20051;-67
2021/10/24 12:19:31;;;;;;;4.53;1.80;;;;;;;9.08;56.27;101881.94;7973819;28;20542;-66
2021/10/24 12:23:26;;;;;;;3.38;1.50;;;;;;;9.08;56.26;101871.44;7973871;28;20101;-67
2021/10/24 12:27:29;;;;;;;4.38;1.77;;;;;;;9.18;56.05;101883.25;7973127;28;20037;-66
2021/10/24 12:31:24;;;;;;;3.83;1.45;;;;;;;9.24;55.86;101884.75;7973687;28;20084;-67
2021/10/24 12:35:15;;;;;;;2.78;1.60;;;;;;;9.25;56.26;101868.09;7973101;28;20496;-66
2021/10/24 12:39:08;;;;;;;6.60;1.77;;;;;;;9.33;56.00;101871.22;7973489;28;20040;-66
2021/10/24 12:43:11;;;;;;;3.28;1.27;;;;;;;9.38;55.96;101865.78;7972812;28;20589;-67
2021/10/24 12:47:15;;;;;;;2.28;1.50;;;;;;;9.43;55.74;101863.81;7972343;28;20095;-66
2021/10/24 12:51:23;;;;;;;6.38;1.20;;;;;;;9.46;55.88;101859.28;7972893;28;20037;-66
2021/10/24 12:55:13;;;;;;;4.20;1.73;;;;;;;9.49;55.90;101848.69;7972469;28;20064;-66
2021/10/24 12:59:04;;;;;;;2.30;1.55;;;;;;;9.49;55.64;101832.09;7972732;28;20037;-67
2021/10/24 13:02:55;;;;;;;4.63;1.42;;;;;;;9.59;55.55;101841.22;7971669;28;20107;-67
2021/10/24 13:06:46;;;;;;;3.13;1.75;;;;;;;9.62;55.54;101836.66;7972125;28;20787;-66
2021/10/24 13:10:37;;;;;;;4.38;1.75;;;;;;;9.64;55.56;101820.88;7975856;28;20061;-66
2021/10/24 13:14:27;;;;;;;1.90;1.17;;;;;;;9.69;55.61;101829.38;7973255;28;20120;-67
2021/10/24 13:18:18;;;;;;;3.58;1.70;;;;;;;9.76;55.64;101822.91;7972536;28;20033;-66
2021/10/24 13:26:18;;;;;;;2.70;1.60;;;;;;;9.82;55.38;101811.28;7971794;28;20107;-67
2021/10/24 13:30:09;;;;;;;2.75;1.75;;;;;;;9.86;55.45;101811.06;7971472;28;20701;-67
2021/10/24 13:34:00;;;;;;;2.25;1.33;;;;;;;9.89;55.53;101800.41;7970198;28;20035;-67
2021/10/24 13:37:51;;;;;;;3.97;2.00;;;;;;;9.93;55.29;101793.22;7964473;28;20505;-68
2021/10/24 13:41:42;;;;;;;2.80;1.60;;;;;;;9.97;55.22;101798.25;7971555;28;20061;-67
2021/10/24 13:45:34;;;;;;;3.47;1.83;;;;;;;10.00;55.28;101787.59;7970232;28;20033;-67
2021/10/24 13:49:24;;;;;;;3.03;1.65;;;;;;;10.00;55.19;101782.34;7971394;28;20040;-66
2021/10/24 13:53:15;;;;;;;4.13;1.38;;;;;;;10.03;55.21;101781.38;7970923;28;20040;-67
2021/10/24 13:57:05;;;;;;;3.92;1.50;;;;;;;10.04;55.14;101783.91;7970693;28;20040;-67
2021/10/24 14:00:56;;;;;;;4.75;1.63;;;;;;;10.09;55.34;101787.16;7970351;28;20033;-68
2021/10/24 14:04:47;;;;;;;1.98;1.17;;;;;;;10.10;55.07;101777.50;7970465;28;20029;-68
2021/10/24 14:08:37;;;;;;;3.25;1.70;;;;;;;10.13;54.91;101772.94;7970758;28;20033;-67
2021/10/24 14:12:28;;;;;;;2.35;1.30;;;;;;;10.16;54.93;101771.94;7970292;28;20042;-66
2021/10/24 14:16:18;;;;;;;1.73;1.33;;;;;;;10.15;54.96;101751.88;7968639;28;20393;-67
2021/10/24 14:20:10;;;;;;;3.15;1.40;;;;;;;10.22;54.77;101754.09;7963492;28;20037;-67
2021/10/24 14:24:00;;;;;;;2.95;1.40;;;;;;;10.22;54.79;101748.00;7969263;28;20037;-67
2021/10/24 14:27:51;;;;;;;4.07;2.38;;;;;;;10.24;54.86;101735.63;7968767;28;20037;-67
2021/10/24 14:31:42;;;;;;;4.38;1.85;;;;;;;10.22;54.40;101727.00;7969313;28;20102;-67
2021/10/24 14:35:32;;;;;;;2.05;1.60;;;;;;;10.27;54.71;101729.38;7969987;28;20749;-68
2021/10/24 14:39:24;;;;;;;1.88;1.33;;;;;;;10.29;54.53;101722.25;7970218;28;20585;-67
2021/10/24 14:43:14;;;;;;;3.67;1.83;;;;;;;10.29;54.60;101725.75;7964783;28;20280;-67
2021/10/24 14:47:05;;;;;;;3.15;1.83;;;;;;;10.25;54.55;101711.06;7969412;28;20690;-67
2021/10/24 14:50:56;;;;;;;6.28;1.70;;;;;;;10.31;54.51;101717.81;7968529;28;20032;-67
2021/10/24 14:54:47;;;;;;;3.95;1.70;;;;;;;10.32;54.42;101709.00;7968710;28;20195;-67
2021/10/24 14:58:37;;;;;;;6.72;1.70;;;;;;;10.32;54.39;101704.59;7968296;28;20029;-67
2021/10/24 15:02:28;;;;;;;3.55;1.40;;;;;;;10.33;54.48;101708.03;7969327;28;20032;-67
2021/10/24 15:06:19;;;;;;;3.00;1.65;;;;;;;10.32;54.35;101701.97;7968653;28;20033;-67
2021/10/24 15:10:09;;;;;;;2.90;1.40;;;;;;;10.34;54.28;101696.63;7970515;28;20132;-67
2021/10/24 15:14:01;;;;;;;2.83;1.25;;;;;;;10.27;54.26;101685.59;7973260;28;20083;-67
2021/10/24 15:17:56;;;;;;;3.28;1.48;;;;;;;10.33;54.22;101690.50;7974936;28;20486;-66
2021/10/24 15:21:47;;;;;;;3.25;1.77;;;;;;;10.32;54.28;101682.75;7972315;28;20034;-66
2021/10/24 15:25:39;;;;;;;2.00;1.60;;;;;;;10.32;54.15;101683.59;7970975;28;20065;-67
2021/10/24 15:29:29;;;;;;;3.08;1.35;;;;;;;10.32;54.25;101674.84;7966632;28;20120;-64
2021/10/24 15:33:20;;;;;;;7.93;1.65;;;;;;;10.30;54.44;101663.56;7974583;28;20045;-66
2021/10/24 15:37:11;;;;;;;1.85;1.30;;;;;;;10.27;54.18;101648.84;7974551;28;20029;-66
2021/10/24 15:41:01;;;;;;;4.05;1.40;;;;;;;10.24;54.24;101641.94;7974950;28;20034;-68
2021/10/24 15:44:52;;;;;;;1.88;1.52;;;;;;;10.23;54.08;101642.91;7976671;28;20033;-65
2021/10/24 15:48:44;;;;;;;1.52;1.20;;;;;;;10.22;53.93;101633.31;7974376;28;20043;-68
2021/10/24 15:52:39;;;;;;;2.50;1.80;;;;;;;10.20;54.11;101640.41;7973868;28;20033;-68
2021/10/24 15:56:29;;;;;;;2.47;1.20;;;;;;;10.19;54.05;101628.25;7974312;28;20030;-68
2021/10/24 16:00:20;;;;;;;2.08;1.10;;;;;;;10.17;54.11;101635.31;7974513;28;20022;-68
2021/10/24 16:04:11;;;;;;;3.20;1.52;;;;;;;10.15;53.99;101636.34;7972769;28;20033;-68
2021/10/24 16:08:02;;;;;;;4.13;1.45;;;;;;;10.07;53.95;101626.22;7973917;28;20029;-68
2021/10/24 16:11:53;;;;;;;3.92;1.30;;;;;;;10.08;53.99;101635.81;7973809;28;20111;-69
2021/10/24 16:15:43;;;;;;;2.50;1.10;;;;;;;10.05;54.08;101630.72;7985964;28;20087;-68
2021/10/24 16:19:34;;;;;;;2.25;1.13;;;;;;;10.02;54.00;101632.66;7973337;28;20045;-68
2021/10/24 16:23:25;;;;;;;2.17;1.50;;;;;;;9.94;53.99;101635.69;7970244;28;20025;-68
2021/10/24 16:27:16;;;;;;;2.92;1.40;;;;;;;9.91;53.94;101633.19;7973226;28;20041;-68
2021/10/24 16:31:07;;;;;;;3.17;1.60;;;;;;;9.87;53.91;101629.03;7973476;28;20034;-67
2021/10/24 16:34:58;;;;;;;2.10;1.52;;;;;;;9.83;54.04;101639.75;7955195;28;20033;-68
2021/10/24 16:38:48;;;;;;;3.17;1.70;;;;;;;9.76;53.87;101626.97;7972109;28;20052;-65
2021/10/24 16:42:41;;;;;;;2.10;1.35;;;;;;;9.70;53.82;101624.63;7972366;28;20034;-65
2021/10/24 16:46:31;;;;;;;6.15;1.65;;;;;;;9.67;53.96;101629.19;7959005;28;20037;-65
2021/10/24 16:50:24;;;;;;;6.50;1.80;;;;;;;9.61;54.06;101612.00;7972205;28;20119;-66
2021/10/24 16:54:15;;;;;;;5.55;1.90;;;;;;;9.60;54.12;101622.56;7972208;28;20675;-66
2021/10/24 16:58:06;;;;;;;5.20;2.38;;;;;;;9.55;53.89;101614.06;7970681;28;20436;-66
2021/10/24 17:01:57;;;;;;;8.93;2.97;;;;;;;9.53;54.01;101605.44;7972626;28;20510;-65
2021/10/24 17:05:47;;;;;;;6.10;2.60;;;;;;;9.48;54.22;101599.56;7971403;28;20112;-66
2021/10/24 17:09:38;;;;;;;4.07;2.05;;;;;;;9.48;54.18;101594.31;7971008;28;20026;-66
2021/10/24 17:13:29;;;;;;;3.78;1.73;;;;;;;9.40;54.11;101573.72;7972065;28;20037;-65
2021/10/24 17:17:19;;;;;;;3.53;1.75;;;;;;;9.41;54.21;101579.84;7972185;28;20044;-66
2021/10/24 17:21:10;;;;;;;2.30;1.50;;;;;;;9.45;54.00;101594.50;7971678;28;20025;-66
2021/10/24 17:25:03;;;;;;;2.08;1.40;;;;;;;9.44;53.99;101605.91;7971792;28;20048;-66
2021/10/24 17:28:53;;;;;;;3.15;1.30;;;;;;;9.43;54.17;101612.06;7972017;28;20033;-66
2021/10/24 17:32:45;;;;;;;3.25;1.45;;;;;;;9.42;54.03;101613.81;7968994;28;20151;-65
2021/10/24 17:36:36;;;;;;;2.55;1.38;;;;;;;9.41;54.27;101613.94;7970357;28;20473;-66
2021/10/24 17:40:26;;;;;;;2.67;1.52;;;;;;;9.38;54.07;101614.06;7971221;28;20494;-65
2021/10/24 17:44:17;;;;;;;2.58;1.75;;;;;;;9.36;53.95;101608.91;7971087;28;20110;-65
2021/10/24 17:48:08;;;;;;;6.78;3.00;;;;;;;9.35;54.05;101609.81;7971579;28;20064;-66
2021/10/24 17:51:58;;;;;;;4.80;2.83;;;;;;;9.33;53.98;101615.09;7969341;28;20084;-65
2021/10/24 17:55:49;;;;;;;7.03;2.65;;;;;;;9.25;54.08;101604.13;7970032;28;20037;-65
2021/10/24 17:59:39;;;;;;;7.10;3.20;;;;;;;9.29;54.09;101618.78;7966424;28;20037;-65
2021/10/24 18:03:30;;;;;;;5.03;2.65;;;;;;;9.28;53.91;101624.97;7966614;28;20033;-65
2021/10/24 18:07:21;;;;;;;2.75;2.08;;;;;;;9.25;53.70;101627.72;7970329;28;20063;-65
2021/10/24 18:11:11;;;;;;;2.97;2.10;;;;;;;9.20;53.74;101626.28;7969852;28;20045;-67
2021/10/24 18:15:03;;;;;;;3.95;2.10;;;;;;;9.15;53.80;101631.75;7970707;28;20047;-68
2021/10/24 18:18:54;;;;;;;2.85;1.50;;;;;;;9.10;53.50;101631.09;7970254;28;20041;-66
2021/10/24 18:22:45;;;;;;;4.15;2.17;;;;;;;9.03;53.54;101627.09;7967091;28;20101;-67